createdAt,value
2022-11-21T00:01:27.804Z,-1.20
2022-11-21T00:03:57.260Z,-1.30
2022-11-21T00:06:28.730Z,-1.30
2022-11-21T00:08:58.904Z,-1.30
2022-11-21T00:11:29.015Z,-1.40
2022-11-21T00:14:02.073Z,-1.40
2022-11-21T00:16:35.634Z,-1.50
2022-11-21T00:19:38.600Z,-1.40
2022-11-21T00:22:09.939Z,-1.40
2022-11-21T00:24:40.102Z,-1.40
2022-11-21T00:27:13.477Z,-1.30
2022-11-21T00:29:46.247Z,-1.30
2022-11-21T00:32:16.349Z,-1.30
2022-11-21T00:34:45.907Z,-1.30
2022-11-21T00:37:17.102Z,-1.30
2022-11-21T00:39:47.106Z,-1.20
2022-11-21T00:42:16.823Z,-1.20
2022-11-21T00:44:46.563Z,-1.20
2022-11-21T00:47:16.474Z,-1.00
2022-11-21T00:49:57.055Z,-1.00
2022-11-21T00:52:36.884Z,-1.00
2022-11-21T01:07:18.963Z,-0.70
2022-11-21T01:09:50.826Z,-0.80
2022-11-21T01:12:23.793Z,-0.80
2022-11-21T01:14:53.641Z,-0.70
2022-11-21T01:17:23.041Z,-0.80
2022-11-21T01:19:52.614Z,-0.90
2022-11-21T01:22:24.084Z,-0.90
2022-11-21T01:24:54.902Z,-0.90
2022-11-21T01:27:24.497Z,-0.80
2022-11-21T01:29:56.533Z,-0.80
2022-11-21T01:32:28.555Z,-0.90
2022-11-21T01:34:59.672Z,-0.90
2022-11-21T01:37:29.221Z,-0.90
2022-11-21T01:40:00.051Z,-0.90
2022-11-21T01:42:29.649Z,-0.90
2022-11-21T01:45:00.910Z,-0.90
2022-11-21T01:47:33.069Z,-0.90
2022-11-21T01:50:02.776Z,-0.90
2022-11-21T01:52:35.304Z,-0.90
2022-11-21T01:55:11.668Z,-0.90
2022-11-21T01:57:45.247Z,-1.00
2022-11-21T02:00:34.494Z,-1.10
2022-11-21T02:03:08.585Z,-1.10
2022-11-21T02:05:40.759Z,-1.10
2022-11-21T02:08:16.006Z,-1.10
2022-11-21T02:10:56.632Z,-1.10
2022-11-21T02:13:29.736Z,-1.20
2022-11-21T02:16:00.260Z,-1.20
2022-11-21T02:18:29.710Z,-1.20
2022-11-21T02:21:04.718Z,-1.30
2022-11-21T02:23:44.087Z,-1.30
2022-11-21T02:26:15.640Z,-1.30
2022-11-21T02:28:46.027Z,-1.30
2022-11-21T02:31:15.429Z,-1.30
2022-11-21T02:33:44.751Z,-1.40
2022-11-21T02:36:43.661Z,-1.50
2022-11-21T02:39:18.772Z,-1.70
2022-11-21T02:41:59.173Z,-1.70
2022-11-21T02:44:35.664Z,-1.60
2022-11-21T02:47:06.779Z,-1.70
2022-11-21T02:49:43.924Z,-1.70
2022-11-21T02:52:13.284Z,-1.70
2022-11-21T02:54:42.765Z,-1.70
2022-11-21T02:57:13.750Z,-1.80
2022-11-21T02:59:43.286Z,-1.80
2022-11-21T03:02:12.834Z,-1.80
2022-11-21T03:04:42.488Z,-1.90
2022-11-21T03:07:14.999Z,-1.90
2022-11-21T03:09:44.565Z,-1.90
2022-11-21T03:12:17.082Z,-1.80
2022-11-21T03:14:46.937Z,-1.80
2022-11-21T03:17:16.820Z,-1.90
2022-11-21T03:19:46.235Z,-1.90
2022-11-21T03:22:20.328Z,-1.90
2022-11-21T03:24:50.136Z,-1.70
2022-11-21T03:27:21.195Z,-1.80
2022-11-21T03:29:50.917Z,-1.80
2022-11-21T03:32:22.676Z,-1.80
2022-11-21T03:34:55.104Z,-1.80
2022-11-21T04:15:27.979Z,-2.30
2022-11-21T04:17:57.924Z,-2.30
2022-11-21T04:20:32.403Z,-2.40
2022-11-21T04:23:05.032Z,-2.40
2022-11-21T04:25:35.645Z,-2.50
2022-11-21T04:28:06.645Z,-2.40
2022-11-21T04:30:40.395Z,-2.50
2022-11-21T04:33:13.456Z,-2.50
2022-11-21T04:35:46.131Z,-2.50
2022-11-21T04:38:16.363Z,-2.40
2022-11-21T04:40:48.199Z,-2.50
2022-11-21T04:43:19.193Z,-2.50
2022-11-21T04:45:50.068Z,-2.50
2022-11-21T04:48:19.645Z,-2.60
2022-11-21T04:50:49.171Z,-2.70
2022-11-21T04:53:18.642Z,-2.80
2022-11-21T04:55:48.040Z,-2.90
2022-11-21T05:24:10.223Z,-3.10
2022-11-21T05:26:41.783Z,-3.20
2022-11-21T05:29:13.342Z,-3.20
2022-11-21T05:31:43.473Z,-3.30
2022-11-21T05:34:13.241Z,-3.30
2022-11-21T05:36:43.549Z,-3.40
2022-11-21T05:39:16.321Z,-3.40
2022-11-21T05:41:50.339Z,-3.40
2022-11-21T05:44:18.920Z,-3.30
2022-11-21T05:46:48.752Z,-3.30
2022-11-21T05:49:18.601Z,-3.30
2022-11-21T05:51:49.060Z,-3.20
2022-11-21T05:54:19.090Z,-3.20
2022-11-21T05:56:50.037Z,-3.10
2022-11-21T05:59:19.506Z,-3.10
2022-11-21T06:02:07.390Z,-3.00
2022-11-21T06:04:37.380Z,-3.10
2022-11-21T06:07:07.320Z,-3.10
2022-11-21T06:35:20.024Z,-3.10
2022-11-21T06:37:53.532Z,-3.00
2022-11-21T06:40:23.933Z,-2.90
2022-11-21T06:42:56.994Z,-2.90
2022-11-21T06:45:29.902Z,-2.80
2022-11-21T06:48:03.617Z,-2.80
2022-11-21T06:50:34.825Z,-2.80
2022-11-21T06:53:12.871Z,-2.60
2022-11-21T06:55:42.654Z,-2.40
2022-11-21T06:58:13.632Z,-2.20
2022-11-21T07:00:46.633Z,-2.10
2022-11-21T07:03:16.283Z,-2.10
2022-11-21T07:05:50.391Z,-2.00
2022-11-21T07:08:20.441Z,-1.90
2022-11-21T07:11:23.008Z,-1.80
2022-11-21T07:13:45.220Z,-1.70
2022-11-21T07:16:15.742Z,-1.50
2022-11-21T07:18:46.250Z,-1.20
2022-11-21T07:21:17.471Z,-0.90
2022-11-21T07:23:50.383Z,-0.60
2022-11-21T07:26:20.052Z,-0.10
2022-11-21T07:28:50.052Z,0.20
2022-11-21T07:31:19.807Z,0.70
2022-11-21T07:33:49.844Z,1.20
2022-11-21T07:36:21.244Z,1.60
2022-11-21T07:38:54.073Z,1.80
2022-11-21T07:41:29.155Z,2.10
2022-11-21T07:43:58.861Z,2.40
2022-11-21T07:46:29.002Z,2.50
2022-11-21T07:49:03.101Z,2.20
2022-11-21T07:51:37.780Z,1.80
2022-11-21T07:54:07.856Z,1.30
2022-11-21T07:56:37.517Z,1.30
2022-11-21T07:59:07.081Z,1.30
2022-11-21T08:01:39.227Z,1.60
2022-11-21T08:04:12.334Z,1.70
2022-11-21T08:06:45.433Z,2.00
2022-11-21T08:09:17.180Z,2.00
2022-11-21T08:11:46.943Z,2.20
2022-11-21T08:14:16.651Z,2.60
2022-11-21T08:46:18.962Z,2.70
2022-11-21T08:48:52.562Z,2.80
2022-11-21T08:51:24.002Z,3.10
2022-11-21T08:53:54.534Z,3.00
2022-11-21T08:56:26.344Z,3.00
2022-11-21T08:58:57.934Z,3.50
2022-11-21T09:01:31.857Z,3.50
2022-11-21T09:04:05.112Z,3.70
2022-11-21T09:06:37.382Z,3.60
2022-11-21T09:09:13.366Z,3.30
2022-11-21T09:11:44.237Z,3.50
2022-11-21T09:14:31.755Z,4.00
2022-11-21T09:17:37.681Z,4.40
2022-11-21T09:20:14.612Z,4.20
2022-11-21T09:22:45.127Z,4.10
2022-11-21T09:25:34.942Z,4.10
2022-11-21T09:28:05.941Z,4.40
2022-11-21T09:30:42.573Z,4.30
2022-11-21T09:33:19.032Z,4.10
2022-11-21T09:35:49.980Z,4.10
2022-11-21T09:41:44.251Z,4.00
2022-11-21T09:44:29.088Z,4.10
2022-11-21T09:47:05.064Z,4.30
2022-11-21T09:49:40.352Z,4.10
2022-11-21T09:52:14.884Z,3.90
2022-11-21T09:54:50.451Z,3.70
2022-11-21T09:57:29.496Z,3.50
2022-11-21T10:00:03.240Z,3.20
2022-11-21T10:02:42.152Z,3.00
2022-11-21T10:05:16.566Z,3.00
2022-11-21T10:07:47.334Z,2.80
2022-11-21T10:10:30.517Z,2.80
2022-11-21T10:13:15.665Z,2.50
2022-11-21T10:15:57.145Z,2.60
2022-11-21T10:18:45.423Z,2.50
2022-11-21T10:21:31.294Z,2.50
2022-11-21T10:24:14.221Z,2.60
2022-11-21T10:26:51.962Z,2.70
2022-11-21T10:29:29.722Z,3.00
2022-11-21T10:32:05.133Z,3.20
2022-11-21T10:34:43.594Z,3.20
2022-11-21T10:37:22.931Z,3.30
2022-11-21T10:40:00.782Z,3.20
2022-11-21T10:42:36.943Z,3.30
2022-11-21T10:45:18.998Z,3.20
2022-11-21T10:47:50.000Z,3.20
2022-11-21T10:50:42.002Z,3.40
2022-11-21T10:53:41.219Z,3.40
2022-11-21T10:56:14.795Z,3.50
2022-11-21T10:58:47.949Z,3.50
2022-11-21T11:01:24.246Z,3.40
2022-11-21T11:04:30.385Z,3.40
2022-11-21T11:07:23.535Z,3.10
2022-11-21T11:09:54.076Z,3.30
2022-11-21T11:12:47.751Z,3.60
2022-11-21T11:15:23.507Z,3.80
2022-11-21T11:18:01.498Z,3.70
2022-11-21T11:20:39.345Z,3.70
2022-11-21T11:23:25.011Z,3.80
2022-11-21T11:25:56.971Z,3.90
2022-11-21T11:28:28.382Z,4.00
2022-11-21T11:30:59.203Z,3.80
2022-11-21T11:33:42.653Z,3.70
2022-11-21T11:36:18.082Z,3.70
2022-11-21T11:38:53.980Z,3.60
2022-11-21T11:42:20.074Z,3.70
2022-11-21T11:45:18.511Z,3.80
2022-11-21T11:47:54.647Z,3.80
2022-11-21T11:50:31.454Z,3.70
2022-11-21T11:53:07.937Z,3.70
2022-11-21T11:55:45.521Z,3.60
2022-11-21T11:58:24.136Z,3.70
2022-11-21T12:01:01.923Z,3.80
2022-11-21T12:03:43.057Z,3.90
2022-11-21T12:06:31.726Z,3.90
2022-11-21T12:09:22.955Z,3.80
2022-11-21T12:12:09.777Z,3.80
2022-11-21T12:15:22.200Z,3.90
2022-11-21T12:18:09.446Z,4.00
2022-11-21T12:20:41.908Z,4.00
2022-11-21T12:23:14.159Z,4.00
2022-11-21T12:25:53.831Z,4.00
2022-11-21T12:28:31.600Z,3.90
2022-11-21T12:31:11.501Z,3.80
2022-11-21T12:33:51.803Z,3.80
2022-11-21T12:36:34.391Z,3.80
2022-11-21T12:39:40.537Z,3.80
2022-11-21T12:42:34.345Z,3.70
2022-11-21T12:45:24.745Z,3.70
2022-11-21T12:48:38.717Z,3.80
2022-11-21T12:52:03.987Z,3.70
2022-11-21T12:55:03.450Z,3.70
2022-11-21T12:57:49.667Z,3.60
2022-11-21T13:00:45.987Z,3.60
2022-11-21T13:04:06.616Z,3.50
2022-11-21T13:06:59.160Z,3.50
2022-11-21T13:09:33.829Z,3.50
2022-11-21T13:12:32.019Z,3.40
2022-11-21T13:15:18.799Z,3.30
2022-11-21T13:17:54.614Z,3.20
2022-11-21T13:20:30.924Z,3.10
2022-11-21T13:23:07.098Z,3.10
2022-11-21T13:25:58.780Z,3.00
2022-11-21T13:28:36.220Z,3.20
2022-11-21T13:31:29.936Z,3.30
2022-11-21T13:34:00.700Z,3.40
2022-11-21T13:36:42.633Z,3.50
2022-11-21T13:39:39.761Z,3.60
2022-11-21T13:42:31.925Z,3.60
2022-11-21T13:45:47.171Z,3.60
2022-11-21T13:52:18.185Z,3.50
2022-11-21T13:55:26.909Z,3.50
2022-11-21T13:58:08.345Z,3.50
2022-11-21T14:01:12.274Z,3.30
2022-11-21T14:04:06.265Z,3.40
2022-11-21T14:06:43.878Z,3.40
2022-11-21T14:09:26.838Z,3.30
2022-11-21T14:11:59.823Z,3.10
2022-11-21T14:14:43.355Z,3.20
2022-11-21T14:17:36.336Z,3.30
2022-11-21T14:20:17.074Z,3.20
2022-11-21T14:22:54.865Z,3.10
2022-11-21T14:25:30.145Z,3.00
2022-11-21T14:28:01.256Z,3.00
2022-11-21T14:30:36.536Z,2.80
2022-11-21T14:33:32.513Z,2.70
2022-11-21T14:36:06.207Z,2.60
2022-11-21T14:38:43.205Z,2.40
2022-11-21T14:41:31.729Z,2.20
2022-11-21T14:44:17.305Z,2.20
2022-11-21T14:46:50.426Z,2.10
2022-11-21T14:49:30.811Z,2.10
2022-11-21T14:52:05.767Z,2.10
2022-11-21T14:55:00.315Z,2.20
2022-11-21T14:57:39.576Z,2.10
2022-11-21T15:00:20.523Z,1.90
2022-11-21T15:03:00.793Z,1.90
2022-11-21T15:11:17.486Z,2.10
2022-11-21T15:16:40.104Z,2.00
2022-11-21T15:19:12.427Z,2.00
2022-11-21T15:21:47.736Z,2.10
2022-11-21T15:24:29.702Z,2.00
2022-11-21T15:26:59.678Z,2.00
2022-11-21T15:29:32.086Z,2.00
2022-11-21T15:32:09.220Z,2.00
2022-11-21T15:34:41.955Z,1.90
2022-11-21T15:37:21.523Z,1.90
2022-11-21T15:39:53.809Z,2.00
2022-11-21T15:42:39.905Z,2.00
2022-11-21T15:45:27.031Z,2.00
2022-11-21T15:47:57.280Z,2.00
2022-11-21T15:50:27.445Z,2.00
2022-11-21T15:52:59.877Z,1.90
2022-11-21T15:55:34.836Z,1.90
2022-11-21T15:58:10.968Z,1.90
2022-11-21T16:00:42.756Z,2.00
2022-11-21T16:03:12.326Z,1.90
2022-11-21T16:05:42.145Z,1.90
2022-11-21T16:08:13.614Z,1.80
2022-11-21T16:10:43.565Z,1.70
2022-11-21T16:13:13.633Z,1.70
2022-11-21T16:15:43.984Z,1.70
2022-11-21T16:18:13.937Z,1.60
2022-11-21T16:20:43.695Z,1.70
2022-11-21T16:23:14.964Z,1.60
2022-11-21T16:25:56.923Z,1.70
2022-11-21T16:28:27.092Z,1.70
2022-11-21T16:30:57.235Z,1.70
2022-11-21T16:33:27.577Z,1.60
2022-11-21T16:35:58.317Z,1.70
2022-11-21T16:38:31.460Z,1.70
2022-11-21T16:41:07.200Z,1.70
2022-11-21T16:43:37.938Z,1.70
2022-11-21T16:46:11.556Z,1.70
2022-11-21T16:48:42.030Z,1.70
2022-11-21T16:51:14.166Z,1.70
2022-11-21T16:53:48.006Z,1.60
2022-11-21T16:56:18.637Z,1.70
2022-11-21T17:01:37.648Z,1.80
2022-11-21T17:04:16.864Z,1.80
2022-11-21T17:06:49.845Z,1.80
2022-11-21T17:09:22.982Z,1.70
2022-11-21T17:11:53.327Z,1.70
2022-11-21T17:14:27.578Z,1.70
2022-11-21T17:17:01.437Z,1.60
2022-11-21T17:22:47.298Z,1.70
2022-11-21T17:25:32.267Z,1.70
2022-11-21T17:28:02.649Z,1.70
2022-11-21T17:30:38.748Z,1.80
2022-11-21T17:33:11.115Z,1.80
2022-11-21T17:35:41.766Z,1.90
2022-11-21T17:38:14.758Z,1.90
2022-11-21T17:40:47.946Z,1.80
2022-11-21T17:43:18.138Z,1.90
2022-11-21T17:45:50.967Z,1.90
2022-11-21T17:48:24.377Z,1.90
2022-11-21T17:51:01.256Z,1.80
2022-11-21T17:53:34.325Z,2.00
2022-11-21T17:56:08.866Z,2.00
2022-11-21T17:58:39.497Z,2.00
2022-11-21T18:01:12.007Z,1.90
2022-11-21T18:03:42.840Z,1.80
2022-11-21T18:06:15.097Z,1.90
2022-11-21T18:08:48.427Z,2.00
2022-11-21T18:11:23.626Z,2.00
2022-11-21T18:13:55.957Z,2.10
2022-11-21T18:16:28.387Z,2.00
2022-11-21T18:18:59.756Z,2.00
2022-11-21T18:21:32.909Z,1.90
2022-11-21T18:24:03.647Z,1.90
2022-11-21T18:26:38.028Z,2.00
2022-11-21T18:32:13.655Z,2.00
2022-11-21T18:35:03.897Z,2.10
2022-11-21T18:40:38.767Z,2.20
2022-11-21T18:43:13.977Z,2.20
2022-11-21T18:45:44.720Z,2.20
2022-11-21T18:48:17.101Z,2.20
2022-11-21T18:50:50.569Z,2.30
2022-11-21T18:53:22.049Z,2.30
2022-11-21T18:55:53.947Z,2.40
2022-11-21T18:58:26.457Z,2.40
2022-11-21T19:01:03.259Z,2.30
2022-11-21T19:03:37.428Z,2.40
2022-11-21T19:06:09.410Z,2.40
2022-11-21T19:08:41.097Z,2.40
2022-11-21T19:11:14.429Z,2.40
2022-11-21T19:16:54.520Z,2.50
2022-11-21T19:19:34.590Z,2.50
2022-11-21T19:22:17.482Z,2.60
2022-11-21T19:24:48.611Z,2.40
2022-11-21T19:27:21.516Z,2.50
2022-11-21T19:30:04.893Z,2.50
2022-11-21T19:32:36.558Z,2.50
2022-11-21T19:35:09.394Z,2.60
2022-11-21T19:37:40.786Z,2.60
2022-11-21T19:40:13.390Z,2.50
2022-11-21T19:42:44.751Z,2.60
2022-11-21T19:45:17.322Z,2.50
2022-11-21T19:47:48.191Z,2.50
2022-11-21T19:50:19.560Z,2.60
2022-11-21T19:52:50.495Z,2.60
2022-11-21T19:55:21.401Z,2.60
2022-11-21T19:57:52.067Z,2.60
2022-11-21T20:00:27.033Z,2.50
2022-11-21T20:02:57.886Z,2.50
2022-11-21T20:05:28.759Z,2.50
2022-11-21T20:08:04.653Z,2.40
2022-11-21T20:10:39.334Z,2.50
2022-11-21T20:13:09.741Z,2.60
2022-11-21T20:15:42.141Z,2.70
2022-11-21T20:18:13.433Z,2.60
2022-11-21T20:20:44.508Z,2.60
2022-11-21T20:23:15.377Z,2.60
2022-11-21T20:25:50.363Z,2.70
2022-11-21T20:28:22.320Z,2.80
2022-11-21T20:30:54.390Z,2.70
2022-11-21T20:33:25.677Z,2.60
2022-11-21T20:35:56.617Z,2.60
2022-11-21T20:38:28.236Z,2.60
2022-11-21T20:40:58.713Z,2.60
2022-11-21T20:44:02.632Z,2.60
2022-11-21T20:46:24.960Z,2.50
2022-11-21T20:48:57.161Z,2.50
2022-11-21T20:54:18.321Z,2.60
2022-11-21T20:56:49.128Z,2.50
2022-11-21T20:59:19.399Z,2.40
2022-11-21T21:01:51.340Z,2.40
2022-11-21T21:04:22.406Z,2.40
2022-11-21T21:06:52.749Z,2.50
2022-11-21T21:09:23.389Z,2.40
2022-11-21T21:11:54.213Z,2.50
2022-11-21T21:14:24.434Z,2.50
2022-11-21T21:16:56.019Z,2.50
2022-11-21T21:19:26.022Z,2.60
2022-11-21T21:21:56.092Z,2.50
2022-11-21T21:24:25.751Z,2.60
2022-11-21T21:26:55.548Z,2.60
2022-11-21T21:29:25.095Z,2.60
2022-11-21T21:31:56.411Z,2.50
2022-11-21T21:34:25.958Z,2.40
2022-11-21T21:36:55.502Z,2.50
2022-11-21T21:39:25.750Z,2.40
2022-11-21T21:41:55.562Z,2.50
2022-11-21T21:44:29.848Z,2.50
2022-11-21T21:47:02.595Z,2.40
2022-11-21T21:49:32.531Z,2.40
2022-11-21T21:52:02.280Z,2.40
2022-11-21T21:54:32.580Z,2.50
2022-11-21T21:57:02.379Z,2.50
2022-11-21T21:59:33.402Z,2.50
2022-11-21T22:02:04.802Z,2.50
2022-11-21T22:04:34.591Z,2.50
2022-11-21T22:07:05.862Z,2.40
2022-11-21T22:09:35.445Z,2.40
2022-11-21T22:12:05.221Z,2.40
2022-11-21T22:14:35.209Z,2.50
2022-11-21T22:17:06.431Z,2.40
2022-11-21T22:19:36.156Z,2.40
2022-11-21T22:22:05.753Z,2.40
2022-11-21T22:24:35.324Z,2.30
2022-11-21T22:27:05.156Z,2.40
2022-11-21T22:29:34.594Z,2.40
2022-11-21T22:32:06.842Z,2.40
2022-11-21T22:34:36.432Z,2.40
2022-11-21T22:37:05.885Z,2.40
2022-11-21T22:39:35.642Z,2.30
2022-11-21T22:42:05.553Z,2.30
2022-11-21T22:44:35.476Z,2.30
2022-11-21T22:47:06.766Z,2.40
2022-11-21T22:49:36.451Z,2.40
2022-11-21T22:52:06.089Z,2.30
2022-11-21T22:54:35.816Z,2.30
2022-11-21T22:57:05.409Z,2.50
2022-11-21T22:59:35.240Z,2.40
2022-11-21T23:02:06.448Z,2.20
2022-11-21T23:04:36.195Z,2.30
2022-11-21T23:07:05.987Z,2.30
2022-11-21T23:09:35.576Z,2.30
2022-11-21T23:12:05.373Z,2.30
2022-11-21T23:14:37.468Z,2.30
2022-11-21T23:17:09.476Z,2.30
2022-11-21T23:19:39.307Z,2.40
2022-11-21T23:22:09.162Z,2.40
2022-11-21T23:24:39.252Z,2.40
2022-11-21T23:27:09.303Z,2.50
2022-11-21T23:29:40.214Z,2.40
2022-11-21T23:32:11.951Z,2.40
2022-11-21T23:34:42.876Z,2.40
2022-11-21T23:37:13.038Z,2.40
2022-11-21T23:39:43.637Z,2.40
2022-11-21T23:42:13.996Z,2.40
2022-11-21T23:44:44.783Z,2.30
2022-11-21T23:47:17.854Z,2.30
2022-11-21T23:49:50.204Z,2.30
2022-11-21T23:52:20.050Z,2.30
2022-11-21T23:54:49.531Z,2.30
2022-11-21T23:57:19.373Z,2.30
2022-11-21T23:59:48.740Z,2.50
